LIEE Airport Information

Runway Information
Runway 14 Length 9196 ft width 148 ft
Elevation 9 ft Threshold 0 ft Heading 138
Runway 32 Length 9196 ft Width 148 ft
Elevation 4 ft Threshold 0 ft Heading 318
Airport Frequencies
Type APP Name CAGLIARI A Frequency 118.75 MHZ
Type GND Name Elmas GND Frequency 125.425 MHZ
Type MISC Name SAR Frequency 123.1 MHZ
Type TWR Name TWR Frequency 120.6 MHZ
Airport Navaids
Type VOR-DME Name Cagliari Frequency 113400 KHZ
Type NDB Name Cagliari Frequency 371 KHZ
Airport Weather Information & NOTAM
ADDS - METARS form results

(1814 UTC 29 May 2020)
Data provider http://aviationweather.gov/metar/data/
 
METAR text: LIEE 291750Z 16006KT CAVOK 21/13 Q1015
Conditions at: LIEE (CAGLIARI/ELMAS(A, IT) observed 1750 UTC 29 May 2020
Temperature: 21.0°C (70°F)
Dewpoint: 13.0°C (55°F) [RH = 60%]
Pressure (altimeter): 29.97 inches Hg (1015.0 mb)
Winds: from the SSE (160 degrees) at 7 MPH (6 knots; 3.1 m/s)
Visibility: 6 or more miles (10+ km)
Ceiling: ceiling and visibility are OK
Clouds: unknown
Weather: no significant weather observed at this time

METAR text: LIEE 291720Z 14007KT CAVOK 21/12 Q1015
Conditions at: LIEE (CAGLIARI/ELMAS(A, IT) observed 1720 UTC 29 May 2020
Temperature: 21.0°C (70°F)
Dewpoint: 12.0°C (54°F) [RH = 56%]
Pressure (altimeter): 29.97 inches Hg (1015.0 mb)
Winds: from the SE (140 degrees) at 8 MPH (7 knots; 3.6 m/s)
Visibility: 6 or more miles (10+ km)
Ceiling: ceiling and visibility are OK
Clouds: unknown
Weather: no significant weather observed at this time

Forecast for: LIEE (CAGLIARI/ELMAS(A, IT)
Text: TAF LIEE 291700Z 2918/3018 15010KT 9999 FEW030
Forecast period: 1800 UTC 29 May 2020 to 1800 UTC 30 May 2020
Forecast type: FROM: standard forecast or significant change
Winds: from the SSE (150 degrees) at 12 MPH (10 knots; 5.1 m/s)
Visibility: 6 or more miles 10+ km)
Ceiling: at least 12,000 feet AGL
Clouds: few clouds at 3000 feet AGL
Weather: no significant weather forecast for this period
Text: BECMG 2918/2920 VRB05KT
Forecast period: 1800 UTC 29 May 2020 to 0800 UTC 30 May 2020
Forecast type: BECOMING: Conditions expected to become as follows by 2000 UTC 29 May 2020
Winds: variable direction winds at 6 MPH (5 knots; 2.6 m/s)
Visibility: 6 or more miles 10+ km)
Ceiling: at least 12,000 feet AGL
Clouds: few clouds at 3000 feet AGL
Weather: no significant weather forecast for this period
Text: BECMG 3008/3010 16010KT
Forecast period: 0800 to 1800 UTC 30 May 2020
Forecast type: BECOMING: Conditions expected to become as follows by 1000 UTC 30 May 2020
Winds: from the SSE (160 degrees) at 12 MPH (10 knots; 5.1 m/s)
Visibility: 6 or more miles 10+ km)
Ceiling: at least 12,000 feet AGL
Clouds: few clouds at 3000 feet AGL
Weather: no significant weather forecast for this period